Time;durP1;ratioP1;P1;durP2;ratioP2;P2;SDS_P1;SDS_P2;PMS_P1;PMS_P2;Temp;Humidity;BMP_temperature;BMP_pressure;BME280_temperature;BME280_humidity;BME280_pressure;Samples;Min_cycle;Max_cycle;Signal;HPM_P1;HPM_P2
2021/04/28 00:00:19;;;;;;;3.50;2.20;;;;;;;2.17;62.77;100717.16;5071853;28;20206;-72
2021/04/28 00:02:45;;;;;;;4.40;2.17;;;;;;;2.16;62.46;100719.81;5073161;28;20165;-71
2021/04/28 00:05:11;;;;;;;3.73;2.23;;;;;;;2.15;62.19;100716.31;5073160;28;20679;-71
2021/04/28 00:07:36;;;;;;;4.30;2.40;;;;;;;2.14;62.28;100711.94;5055398;28;20182;-72
2021/04/28 00:10:05;;;;;;;8.50;2.70;;;;;;;2.11;63.10;100704.13;5071840;28;20179;-71
2021/04/28 00:12:30;;;;;;;5.13;2.40;;;;;;;2.09;62.57;100711.19;5055456;28;20646;-71
2021/04/28 00:14:56;;;;;;;5.03;2.43;;;;;;;2.05;63.01;100704.25;5073160;28;20242;-71
2021/04/28 00:17:21;;;;;;;4.93;2.43;;;;;;;2.09;62.73;100698.03;5071651;28;20177;-71
2021/04/28 00:19:47;;;;;;;4.33;2.43;;;;;;;2.06;62.99;100705.97;5054751;28;20298;-71
2021/04/28 00:22:12;;;;;;;6.00;2.60;;;;;;;2.03;62.89;100703.41;5072782;28;20178;-71
2021/04/28 00:24:39;;;;;;;6.13;2.30;;;;;;;2.08;62.95;100701.56;5072703;28;20212;-71
2021/04/28 00:27:04;;;;;;;5.30;2.60;;;;;;;2.07;63.06;100706.84;5071352;28;20174;-71
2021/04/28 00:29:30;;;;;;;5.27;2.70;;;;;;;2.02;63.31;100708.72;5071447;28;20706;-71
2021/04/28 00:31:56;;;;;;;4.73;2.40;;;;;;;1.96;63.39;100700.94;5071427;28;20177;-72
2021/04/28 00:34:21;;;;;;;3.67;2.60;;;;;;;1.94;63.27;100703.59;5071242;28;20336;-70
2021/04/28 00:36:46;;;;;;;6.97;2.57;;;;;;;1.88;63.29;100704.59;5071279;28;20207;-71
2021/04/28 00:39:12;;;;;;;4.27;2.37;;;;;;;1.83;63.45;100708.19;5071209;28;20201;-71
2021/04/28 00:41:37;;;;;;;8.80;2.40;;;;;;;1.97;63.22;100700.03;5071708;28;20175;-71
2021/04/28 00:44:03;;;;;;;4.10;2.50;;;;;;;1.82;63.76;100698.56;5075020;28;20217;-72
2021/04/28 00:46:28;;;;;;;6.53;2.80;;;;;;;1.74;64.31;100698.72;5076313;28;20181;-70
2021/04/28 00:48:54;;;;;;;6.47;2.73;;;;;;;1.73;64.24;100702.25;5076431;28;20182;-70
2021/04/28 00:51:19;;;;;;;9.17;2.80;;;;;;;1.72;64.56;100703.13;5075189;28;20285;-71
2021/04/28 00:53:45;;;;;;;3.43;2.63;;;;;;;1.70;64.70;100697.03;5074974;28;20193;-71
2021/04/28 00:56:10;;;;;;;4.47;2.70;;;;;;;1.72;64.63;100692.59;5058400;28;20190;-71
2021/04/28 00:58:36;;;;;;;6.10;2.77;;;;;;;1.72;64.60;100691.75;5074782;28;20182;-70
2021/04/28 01:01:01;;;;;;;7.27;2.60;;;;;;;1.70;64.75;100693.53;5074608;28;20218;-71
2021/04/28 01:03:28;;;;;;;4.27;2.53;;;;;;;1.69;64.77;100699.69;5074889;28;20224;-71
2021/04/28 01:05:57;;;;;;;4.17;2.33;;;;;;;1.62;64.83;100692.81;5074850;28;20504;-71
2021/04/28 01:08:22;;;;;;;10.47;3.30;;;;;;;1.56;65.14;100693.81;5075066;28;20180;-70
2021/04/28 01:10:49;;;;;;;4.53;2.50;;;;;;;1.49;65.49;100695.69;5075936;28;20188;-71
2021/04/28 01:13:14;;;;;;;10.00;2.80;;;;;;;1.46;65.55;100687.81;5075869;28;20182;-70
2021/04/28 01:15:39;;;;;;;4.43;2.77;;;;;;;1.47;65.84;100683.41;5074731;28;20186;-71
2021/04/28 01:18:05;;;;;;;5.43;2.80;;;;;;;1.47;65.70;100686.06;5074657;28;20546;-71
2021/04/28 01:20:34;;;;;;;6.17;3.20;;;;;;;1.40;66.02;100682.66;5075872;28;20192;-71
2021/04/28 01:23:00;;;;;;;5.07;3.00;;;;;;;1.35;66.34;100687.16;5075804;28;20520;-72
2021/04/28 01:25:26;;;;;;;7.03;2.90;;;;;;;1.41;66.11;100679.16;5074565;28;20173;-71
2021/04/28 01:28:02;;;;;;;6.00;2.77;;;;;;;1.42;65.92;100678.25;5074589;28;20173;-71
2021/04/28 01:30:31;;;;;;;7.90;3.03;;;;;;;1.35;66.18;100676.63;5074400;28;20266;-71
2021/04/28 01:32:57;;;;;;;5.47;2.57;;;;;;;1.30;66.42;100670.59;5074328;28;20173;-71
2021/04/28 01:35:23;;;;;;;6.27;2.70;;;;;;;1.33;66.26;100672.28;5074239;28;20661;-72
2021/04/28 01:37:48;;;;;;;5.80;2.90;;;;;;;1.33;66.26;100672.28;5074416;28;20202;-71
2021/04/28 01:40:16;;;;;;;4.83;2.77;;;;;;;1.31;66.59;100672.31;5073901;28;20591;-71
2021/04/28 01:42:43;;;;;;;3.77;2.60;;;;;;;1.32;66.40;100670.56;5074602;28;20177;-71
2021/04/28 01:45:10;;;;;;;6.00;2.70;;;;;;;1.29;66.94;100666.22;5075123;28;20701;-71
2021/04/28 01:47:35;;;;;;;4.40;2.70;;;;;;;1.27;66.49;100670.66;5073671;28;20179;-71
2021/04/28 01:50:02;;;;;;;3.87;2.50;;;;;;;1.27;66.97;100667.16;5075220;28;20654;-71
2021/04/28 01:52:27;;;;;;;3.77;2.83;;;;;;;1.25;66.98;100659.28;5073673;28;20818;-71
2021/04/28 01:54:53;;;;;;;4.60;2.80;;;;;;;1.27;66.49;100660.13;5056348;28;20287;-72
2021/04/28 01:57:18;;;;;;;8.97;3.40;;;;;;;1.31;66.88;100659.19;5074693;28;20267;-71
2021/04/28 01:59:44;;;;;;;5.27;3.00;;;;;;;1.33;66.80;100667.91;5074322;28;20203;-71
2021/04/28 02:02:10;;;;;;;6.53;3.17;;;;;;;1.32;66.65;100654.78;5073667;28;20181;-71
2021/04/28 02:04:37;;;;;;;4.20;2.90;;;;;;;1.26;66.69;100658.41;5074574;28;20205;-71
2021/04/28 02:07:03;;;;;;;6.80;2.87;;;;;;;1.22;66.85;100647.06;5074707;28;20176;-70
2021/04/28 02:09:29;;;;;;;5.57;3.20;;;;;;;1.21;67.12;100652.34;5073662;28;20184;-71
2021/04/28 02:11:54;;;;;;;8.63;2.90;;;;;;;1.25;66.91;100647.00;5056888;28;20176;-71
2021/04/28 02:14:21;;;;;;;11.17;3.40;;;;;;;1.29;66.55;100649.59;5074556;28;20197;-71
2021/04/28 02:16:46;;;;;;;6.07;2.90;;;;;;;1.29;66.38;100639.94;5073809;28;20208;-71
2021/04/28 02:19:12;;;;;;;6.13;3.43;;;;;;;1.28;66.91;100638.19;5073828;28;20174;-71
2021/04/28 02:21:45;;;;;;;5.73;3.20;;;;;;;1.30;66.49;100635.53;5074734;28;20180;-71
2021/04/28 02:24:12;;;;;;;4.20;2.83;;;;;;;1.31;66.30;100634.63;5056902;28;20197;-71
2021/04/28 02:26:38;;;;;;;5.30;2.97;;;;;;;1.31;67.07;100639.91;5056572;28;20642;-71
2021/04/28 02:29:04;;;;;;;6.33;3.20;;;;;;;1.26;66.78;100634.72;5074527;28;20183;-71
2021/04/28 02:31:30;;;;;;;6.77;4.03;;;;;;;1.25;66.49;100631.22;5073712;28;20187;-70
2021/04/28 02:33:55;;;;;;;6.60;3.40;;;;;;;1.20;66.96;100633.09;5073465;28;20775;-71
2021/04/28 02:36:22;;;;;;;10.07;3.60;;;;;;;1.10;67.18;100628.84;5074720;28;20629;-71
2021/04/28 02:38:53;;;;;;;6.17;3.00;;;;;;;1.11;67.29;100633.22;5073609;28;20185;-71
2021/04/28 02:41:19;;;;;;;5.70;3.43;;;;;;;1.04;67.31;100628.09;5074675;28;20272;-72
2021/04/28 02:43:44;;;;;;;7.60;3.27;;;;;;;0.98;67.83;100634.34;5073245;28;20623;-71
2021/04/28 02:46:11;;;;;;;6.63;3.60;;;;;;;0.98;67.30;100630.84;5075193;28;20182;-71
2021/04/28 02:48:43;;;;;;;5.93;3.07;;;;;;;1.00;67.38;100622.03;5073357;28;20177;-71
2021/04/28 02:51:08;;;;;;;8.10;3.30;;;;;;;1.01;67.53;100628.16;5072861;28;20178;-70
2021/04/28 02:53:34;;;;;;;5.30;3.03;;;;;;;1.04;67.53;100618.44;5073170;28;20197;-71
2021/04/28 02:55:59;;;;;;;5.20;3.40;;;;;;;1.08;67.23;100624.53;5055791;28;20183;-71
2021/04/28 02:58:26;;;;;;;6.20;3.27;;;;;;;1.03;67.31;100623.75;5074105;28;20177;-71
2021/04/28 03:00:53;;;;;;;7.20;3.37;;;;;;;1.00;67.54;100615.91;5072469;28;20260;-71
2021/04/28 03:03:19;;;;;;;6.47;3.10;;;;;;;1.03;67.16;100613.22;5072762;28;20214;-71
2021/04/28 03:05:51;;;;;;;6.80;3.90;;;;;;;1.05;67.05;100612.31;5072297;28;20175;-71
2021/04/28 03:08:17;;;;;;;5.77;3.67;;;;;;;1.10;66.88;100609.59;5071571;28;20168;-71
2021/04/28 03:10:43;;;;;;;5.17;3.40;;;;;;;1.00;67.36;100605.41;5072290;28;20624;-71
2021/04/28 03:13:08;;;;;;;6.73;3.60;;;;;;;1.00;67.02;100608.03;5072961;28;20175;-71
2021/04/28 03:15:34;;;;;;;7.47;3.80;;;;;;;1.01;66.91;100602.75;5072426;28;20660;-71
2021/04/28 03:17:59;;;;;;;6.53;4.13;;;;;;;0.96;67.11;100604.59;5072201;28;20253;-71
2021/04/28 03:20:26;;;;;;;7.57;3.90;;;;;;;0.96;67.18;100601.09;5072405;28;20206;-70
2021/04/28 03:22:51;;;;;;;7.83;4.03;;;;;;;0.83;67.46;100603.94;5055484;28;20171;-70
2021/04/28 03:25:16;;;;;;;8.57;4.13;;;;;;;0.73;68.18;100597.06;5072124;28;20199;-70
2021/04/28 03:27:42;;;;;;;8.17;3.63;;;;;;;0.75;67.68;100594.47;5073845;28;20183;-70
2021/04/28 03:30:07;;;;;;;8.33;4.30;;;;;;;0.79;67.33;100591.75;5072066;28;20229;-71
2021/04/28 03:32:33;;;;;;;5.53;3.73;;;;;;;0.70;67.68;100591.88;5071995;28;20547;-70
2021/04/28 03:34:58;;;;;;;8.53;4.10;;;;;;;0.72;67.67;100594.47;5055058;28;20286;-71
2021/04/28 03:37:23;;;;;;;5.80;3.70;;;;;;;0.73;67.89;100591.81;5072265;28;20182;-71
2021/04/28 03:39:49;;;;;;;9.17;4.10;;;;;;;0.72;68.08;100584.84;5072038;28;20192;-70
2021/04/28 03:42:14;;;;;;;5.40;3.50;;;;;;;0.81;67.26;100589.97;5072084;28;20172;-70
2021/04/28 03:44:40;;;;;;;7.53;3.83;;;;;;;0.81;67.51;100596.97;5073331;28;20555;-70
2021/04/28 03:47:05;;;;;;;6.70;4.40;;;;;;;0.88;67.27;100593.34;5071910;28;20601;-70
2021/04/28 03:49:30;;;;;;;9.10;4.40;;;;;;;0.84;67.11;100589.03;5073264;28;20178;-70
2021/04/28 03:51:56;;;;;;;8.57;4.03;;;;;;;0.76;67.22;100593.56;5072526;28;20184;-70
2021/04/28 03:54:21;;;;;;;6.47;4.53;;;;;;;0.91;66.68;100595.91;5071845;28;20222;-71
2021/04/28 03:56:46;;;;;;;7.07;4.23;;;;;;;1.06;66.20;100593.00;5071724;28;20180;-70
2021/04/28 03:59:12;;;;;;;8.27;4.00;;;;;;;0.83;66.81;100600.44;5073270;28;20189;-70
2021/04/28 04:01:39;;;;;;;7.13;3.97;;;;;;;0.71;67.72;100596.25;5071662;28;20273;-71
2021/04/28 04:04:04;;;;;;;7.47;3.80;;;;;;;0.70;67.33;100601.53;5071720;28;20276;-71
2021/04/28 04:06:29;;;;;;;5.17;3.60;;;;;;;0.62;67.33;100599.88;5071650;28;20248;-71
2021/04/28 04:08:55;;;;;;;5.20;3.43;;;;;;;0.55;68.04;100602.66;5072815;28;20225;-70
2021/04/28 04:11:20;;;;;;;6.40;3.27;;;;;;;0.39;68.69;100606.41;5071807;28;20176;-71
2021/04/28 04:13:45;;;;;;;5.67;3.10;;;;;;;0.22;69.54;100599.63;5054846;28;20199;-71
2021/04/28 04:16:10;;;;;;;9.73;4.07;;;;;;;0.19;69.66;100606.69;5072908;28;20182;-71
2021/04/28 04:18:36;;;;;;;7.57;4.17;;;;;;;0.45;68.63;100601.06;5073327;28;20539;-71
2021/04/28 04:21:01;;;;;;;7.53;3.97;;;;;;;0.61;67.81;100606.03;5059187;28;20228;-71
2021/04/28 04:23:27;;;;;;;6.60;4.47;;;;;;;0.73;67.56;100604.09;5075832;28;20192;-71
2021/04/28 04:25:52;;;;;;;6.43;4.67;;;;;;;0.89;67.07;100595.94;5076634;28;20172;-71
2021/04/28 04:28:17;;;;;;;10.17;4.10;;;;;;;0.91;67.29;100601.19;5075565;28;20180;-71
2021/04/28 04:30:43;;;;;;;8.63;3.87;;;;;;;1.02;66.13;100599.22;5077041;28;20172;-72
2021/04/28 04:33:10;;;;;;;9.77;4.37;;;;;;;1.22;65.47;100609.38;5058605;28;20176;-71
2021/04/28 04:35:35;;;;;;;9.07;4.70;;;;;;;1.30;65.28;100603.97;5076870;28;20520;-71
2021/04/28 04:38:00;;;;;;;7.50;4.60;;;;;;;1.39;65.03;100602.03;5076475;28;20213;-71
2021/04/28 04:40:26;;;;;;;6.60;4.30;;;;;;;1.40;64.67;100605.53;5075073;28;20192;-71
2021/04/28 04:42:51;;;;;;;6.83;3.77;;;;;;;1.48;64.99;100595.72;5076484;28;20183;-72
2021/04/28 04:45:16;;;;;;;11.30;4.53;;;;;;;1.51;64.80;100596.56;5074841;28;20218;-72
2021/04/28 04:47:42;;;;;;;11.97;4.10;;;;;;;1.53;64.29;100596.53;5076143;28;20231;-72
2021/04/28 04:50:08;;;;;;;9.93;4.27;;;;;;;1.46;65.25;100592.25;5076090;28;20238;-71
2021/04/28 04:52:33;;;;;;;6.47;3.90;;;;;;;1.46;65.14;100597.53;5074869;28;20281;-72
2021/04/28 04:54:59;;;;;;;7.53;4.03;;;;;;;1.51;65.72;100596.56;5075982;28;20197;-71
2021/04/28 04:57:26;;;;;;;9.30;3.80;;;;;;;1.49;66.09;100593.09;5074899;28;20189;-72
2021/04/28 04:59:51;;;;;;;6.67;4.00;;;;;;;1.49;65.82;100590.47;5075049;28;20270;-71
2021/04/28 05:02:16;;;;;;;8.23;3.50;;;;;;;1.64;64.73;100591.91;5074714;28;20174;-71
2021/04/28 05:04:42;;;;;;;7.40;4.30;;;;;;;1.74;64.61;100589.97;5075907;28;20206;-71
2021/04/28 05:07:07;;;;;;;7.77;4.03;;;;;;;1.85;63.89;100591.47;5074616;28;20693;-72
2021/04/28 05:09:32;;;;;;;6.40;4.37;;;;;;;2.14;62.60;100597.88;5075744;28;20170;-71
2021/04/28 05:11:58;;;;;;;9.87;4.30;;;;;;;2.09;63.88;100592.69;5074428;28;20186;-71
2021/04/28 05:14:23;;;;;;;8.53;4.00;;;;;;;2.23;63.21;100586.25;5074467;28;20686;-71
2021/04/28 05:16:48;;;;;;;7.87;4.57;;;;;;;2.20;62.79;100582.78;5074846;28;20205;-72
2021/04/28 05:19:14;;;;;;;8.57;4.30;;;;;;;2.34;63.17;100579.00;5077835;28;20208;-73
2021/04/28 05:21:39;;;;;;;7.70;4.90;;;;;;;2.37;62.47;100587.69;5075556;28;20220;-73
2021/04/28 05:24:05;;;;;;;9.47;4.80;;;;;;;2.60;61.55;100575.72;5075962;28;20205;-73
2021/04/28 05:26:30;;;;;;;18.73;4.87;;;;;;;2.83;60.47;100569.00;5076132;28;20189;-72
2021/04/28 05:28:55;;;;;;;8.97;4.53;;;;;;;2.87;60.47;100563.63;5075507;28;20210;-67
2021/04/28 05:31:21;;;;;;;14.87;4.90;;;;;;;3.02;60.25;100569.41;5073192;28;20183;-67
2021/04/28 05:33:47;;;;;;;16.13;6.17;;;;;;;3.05;60.01;100563.19;5075432;28;20195;-67
2021/04/28 05:36:12;;;;;;;9.63;4.47;;;;;;;3.34;58.91;100563.22;5074255;28;20247;-67
2021/04/28 05:38:37;;;;;;;13.00;4.87;;;;;;;3.54;58.54;100562.69;5075540;28;20245;-67
2021/04/28 05:41:03;;;;;;;7.97;4.87;;;;;;;3.64;58.15;100558.00;5075661;28;20609;-67
2021/04/28 05:43:29;;;;;;;9.20;5.23;;;;;;;3.69;57.43;100569.28;5075127;28;20316;-67
2021/04/28 05:45:54;;;;;;;7.63;5.00;;;;;;;3.85;57.06;100554.75;5075177;28;20167;-68
2021/04/28 05:48:19;;;;;;;11.63;5.50;;;;;;;3.93;56.97;100558.03;5074490;28;20171;-68
2021/04/28 05:50:45;;;;;;;15.10;4.77;;;;;;;3.99;57.20;100556.97;5074334;28;20532;-73
2021/04/28 05:53:11;;;;;;;7.67;4.47;;;;;;;4.38;55.59;100560.16;5073820;28;20175;-71
2021/04/28 05:55:37;;;;;;;10.13;5.30;;;;;;;4.24;56.09;100557.09;5073706;28;20187;-72
2021/04/28 05:58:04;;;;;;;7.83;4.83;;;;;;;4.36;55.82;100551.41;5073866;28;20561;-72
2021/04/28 06:00:29;;;;;;;9.43;5.03;;;;;;;4.51;55.74;100550.94;5073758;28;20243;-72
2021/04/28 06:02:55;;;;;;;11.23;4.67;;;;;;;4.68;54.66;100547.72;5073820;28;20183;-72
2021/04/28 06:05:20;;;;;;;7.77;4.83;;;;;;;4.75;55.61;100553.66;5073954;28;20191;-72
2021/04/28 06:07:46;;;;;;;7.13;4.50;;;;;;;4.70;54.91;100541.47;5075405;28;20174;-72
2021/04/28 06:10:12;;;;;;;8.13;4.83;;;;;;;4.64;55.03;100549.63;5075087;28;20254;-72
2021/04/28 06:12:38;;;;;;;8.70;5.13;;;;;;;4.85;54.81;100544.53;5073672;28;20194;-72
2021/04/28 06:15:04;;;;;;;8.27;4.93;;;;;;;5.02;54.59;100540.38;5056684;28;20195;-73
2021/04/28 06:17:29;;;;;;;8.57;5.03;;;;;;;5.07;54.40;100542.00;5073514;28;20187;-72
2021/04/28 06:19:55;;;;;;;8.63;5.13;;;;;;;5.20;54.00;100543.28;5074991;28;20273;-73
2021/04/28 06:22:20;;;;;;;11.67;5.20;;;;;;;5.22;54.16;100538.84;5075533;28;20270;-73
2021/04/28 06:24:47;;;;;;;10.27;5.47;;;;;;;5.48;53.92;100549.31;5074690;28;20202;-73
2021/04/28 06:27:12;;;;;;;8.70;5.00;;;;;;;5.62;53.47;100548.84;5074584;28;20170;-72
2021/04/28 06:29:38;;;;;;;10.47;5.07;;;;;;;5.92;53.22;100536.22;5076086;28;20237;-72
2021/04/28 06:32:03;;;;;;;9.00;5.10;;;;;;;5.89;53.98;100550.47;5090320;28;20171;-73
2021/04/28 06:34:28;;;;;;;9.23;5.30;;;;;;;6.00;53.29;100535.97;5081785;28;20202;-72
2021/04/28 06:36:54;;;;;;;25.20;6.20;;;;;;;5.92;53.56;100539.75;5073996;28;20178;-72
2021/04/28 06:39:19;;;;;;;8.53;5.17;;;;;;;6.10;52.90;100540.84;5074286;28;20253;-73
2021/04/28 06:41:44;;;;;;;8.63;5.03;;;;;;;6.42;52.03;100528.09;5074758;28;20175;-73
2021/04/28 06:44:10;;;;;;;7.23;5.20;;;;;;;6.86;50.09;100539.50;5073113;28;20213;-71
2021/04/28 06:46:35;;;;;;;10.43;5.20;;;;;;;6.88;49.22;100519.94;5072745;28;20178;-72
2021/04/28 06:49:01;;;;;;;10.30;5.30;;;;;;;7.20;48.76;100526.53;5073012;28;20171;-73
2021/04/28 06:51:26;;;;;;;7.37;4.93;;;;;;;7.30;47.97;100523.47;5072831;28;20178;-73
2021/04/28 06:53:51;;;;;;;10.90;5.27;;;;;;;7.37;46.74;100520.47;5072539;28;20213;-72
2021/04/28 06:56:17;;;;;;;7.27;4.83;;;;;;;7.16;47.21;100521.41;5073767;28;20175;-73
2021/04/28 06:58:45;;;;;;;8.60;4.80;;;;;;;7.25;47.85;100520.16;5072813;28;20626;-72
2021/04/28 07:01:10;;;;;;;12.03;5.43;;;;;;;7.36;47.05;100521.38;5072233;28;20225;-73
2021/04/28 07:03:35;;;;;;;7.77;5.13;;;;;;;7.59;47.02;100512.41;5073350;28;20235;-73
2021/04/28 07:06:00;;;;;;;9.57;5.20;;;;;;;7.74;46.37;100513.47;5073315;28;20175;-73
2021/04/28 07:08:26;;;;;;;9.80;5.23;;;;;;;7.72;45.84;100510.03;5073693;28;20512;-73
2021/04/28 07:10:51;;;;;;;7.53;4.70;;;;;;;7.91;44.54;100513.56;5074542;28;20189;-71
2021/04/28 07:13:16;;;;;;;11.30;5.13;;;;;;;7.98;44.90;100508.81;5075184;28;20187;-71
2021/04/28 07:15:42;;;;;;;8.93;5.13;;;;;;;8.13;44.71;100508.94;5074600;28;20182;-71
2021/04/28 07:18:07;;;;;;;7.57;5.70;;;;;;;8.28;44.22;100502.03;5073591;28;20182;-71
2021/04/28 07:20:32;;;;;;;11.10;5.00;;;;;;;8.49;44.84;100496.63;5072919;28;20237;-72
2021/04/28 07:22:58;;;;;;;9.27;4.80;;;;;;;8.53;42.68;100483.09;5072338;28;20224;-73
2021/04/28 07:25:23;;;;;;;9.57;5.40;;;;;;;8.58;43.43;100490.88;5075455;28;20249;-72
2021/04/28 07:27:48;;;;;;;11.67;5.77;;;;;;;8.82;43.09;100486.94;5073031;28;20167;-73
2021/04/28 07:30:16;;;;;;;10.37;5.70;;;;;;;9.18;40.67;100486.84;5073508;28;20596;-72
2021/04/28 07:32:41;;;;;;;10.47;6.07;;;;;;;9.11;40.61;100487.25;5072793;28;20171;-73
2021/04/28 07:35:07;;;;;;;10.20;6.10;;;;;;;9.17;39.97;100487.78;5057713;28;20201;-73
2021/04/28 07:37:32;;;;;;;14.07;6.73;;;;;;;9.17;40.59;100479.81;5077272;28;20175;-74
2021/04/28 07:39:58;;;;;;;11.57;6.30;;;;;;;9.37;40.91;100487.59;5079839;28;20332;-73
2021/04/28 07:42:23;;;;;;;10.10;6.20;;;;;;;9.51;39.46;100486.84;5073548;28;20627;-71
2021/04/28 07:44:49;;;;;;;16.53;6.60;;;;;;;9.57;39.56;100481.19;5071664;28;20570;-72
2021/04/28 07:47:14;;;;;;;12.80;7.40;;;;;;;9.51;39.66;100481.53;5073719;28;20717;-74
2021/04/28 07:49:40;;;;;;;12.43;6.83;;;;;;;9.52;40.55;100488.56;5054653;28;20296;-72
2021/04/28 07:52:05;;;;;;;12.97;7.30;;;;;;;9.61;38.88;100487.22;5071025;28;20174;-71
2021/04/28 07:54:30;;;;;;;12.00;7.13;;;;;;;9.74;39.54;100482.97;5072395;28;20195;-73
2021/04/28 07:56:56;;;;;;;14.73;7.60;;;;;;;9.76;38.70;100474.88;5073077;28;20194;-72
2021/04/28 07:59:21;;;;;;;16.93;8.13;;;;;;;10.01;38.28;100469.88;5071389;28;20643;-72
2021/04/28 08:01:47;;;;;;;13.47;7.57;;;;;;;10.03;37.66;100474.22;5072123;28;20220;-72
2021/04/28 08:04:12;;;;;;;12.83;7.90;;;;;;;10.00;37.97;100466.34;5054132;28;20229;-71
2021/04/28 08:06:37;;;;;;;12.40;7.20;;;;;;;10.22;37.04;100473.19;5072633;28;20182;-72
2021/04/28 08:09:04;;;;;;;13.17;8.20;;;;;;;10.55;36.39;100473.06;5071659;28;20175;-73
2021/04/28 08:11:29;;;;;;;13.63;7.57;;;;;;;10.51;36.74;100468.84;5071077;28;20676;-72
2021/04/28 08:13:55;;;;;;;12.27;7.30;;;;;;;10.80;36.55;100470.66;5071624;28;20223;-71
2021/04/28 08:16:20;;;;;;;14.87;7.70;;;;;;;10.72;37.02;100467.56;5072278;28;20191;-71
2021/04/28 08:18:46;;;;;;;14.57;8.87;;;;;;;10.69;37.26;100467.75;5054375;28;20181;-72
2021/04/28 08:21:12;;;;;;;14.20;8.50;;;;;;;10.74;37.94;100467.47;5071015;28;20194;-72
2021/04/28 08:23:42;;;;;;;13.10;7.93;;;;;;;10.79;38.03;100434.25;5071319;28;20217;-72
2021/04/28 08:26:08;;;;;;;15.00;8.13;;;;;;;10.64;37.07;100443.16;5071375;28;20175;-72
2021/04/28 08:28:40;;;;;;;14.50;7.57;;;;;;;10.63;36.68;100452.09;5071688;28;20178;-72
2021/04/28 08:31:07;;;;;;;18.37;8.00;;;;;;;10.82;36.08;100458.09;5071502;28;20260;-72
2021/04/28 08:33:32;;;;;;;15.73;8.20;;;;;;;10.68;35.72;100449.16;5071653;28;20190;-73
2021/04/28 08:35:57;;;;;;;12.37;7.90;;;;;;;10.75;35.69;100454.03;5071349;28;20182;-74
2021/04/28 08:38:23;;;;;;;14.90;7.87;;;;;;;10.76;35.50;100446.88;5073010;28;20535;-74
2021/04/28 08:40:48;;;;;;;13.53;7.77;;;;;;;10.67;36.03;100450.09;5072551;28;20540;-73
2021/04/28 08:43:13;;;;;;;18.87;8.97;;;;;;;10.77;36.44;100448.59;5071478;28;20539;-71
2021/04/28 08:45:39;;;;;;;11.33;7.43;;;;;;;11.06;36.42;100449.53;5054389;28;20167;-72
2021/04/28 08:48:04;;;;;;;13.90;8.83;;;;;;;11.30;36.16;100447.19;5055171;28;20170;-72
2021/04/28 08:50:30;;;;;;;16.70;8.20;;;;;;;11.45;35.75;100441.72;5055256;28;20174;-73
2021/04/28 08:52:55;;;;;;;12.47;8.23;;;;;;;11.45;35.19;100432.84;5071824;28;20175;-73
2021/04/28 08:55:21;;;;;;;15.73;9.13;;;;;;;11.55;34.53;100436.69;5071903;28;20194;-73
2021/04/28 08:57:46;;;;;;;21.47;9.70;;;;;;;11.18;37.12;100432.78;5072775;28;20182;-71
2021/04/28 09:00:12;;;;;;;14.50;8.83;;;;;;;11.27;37.21;100430.38;5072701;28;20198;-74
2021/04/28 09:02:52;;;;;;;14.20;8.37;;;;;;;11.61;35.21;100422.91;5072972;28;20179;-72
2021/04/28 09:05:17;;;;;;;15.83;8.43;;;;;;;11.70;34.21;100429.50;5072616;28;20277;-73
2021/04/28 09:07:43;;;;;;;16.23;9.20;;;;;;;11.32;35.90;100423.88;5075125;28;20305;-73
2021/04/28 09:10:18;;;;;;;19.90;9.07;;;;;;;11.44;35.62;100420.44;5076006;28;20170;-72
2021/04/28 09:12:58;;;;;;;17.57;9.17;;;;;;;11.59;35.92;100416.81;5077123;28;20613;-72
2021/04/28 09:15:35;;;;;;;18.13;9.80;;;;;;;12.14;34.98;100419.47;5075788;28;20253;-73
2021/04/28 09:18:02;;;;;;;17.10;8.87;;;;;;;12.09;34.38;100410.91;5075723;28;20215;-72
2021/04/28 09:20:34;;;;;;;14.23;9.17;;;;;;;11.86;33.87;100414.19;5059013;28;20256;-73
2021/04/28 09:23:12;;;;;;;15.63;9.83;;;;;;;12.16;34.31;100412.19;5077304;28;20162;-73
2021/04/28 09:25:42;;;;;;;21.00;9.33;;;;;;;12.47;33.03;100408.34;5079937;28;20156;-73
2021/04/28 09:28:20;;;;;;;17.70;9.33;;;;;;;12.63;32.51;100404.63;5057509;28;20171;-72
2021/04/28 09:30:46;;;;;;;12.70;8.83;;;;;;;12.57;32.96;100405.03;5074168;28;20167;-73
2021/04/28 09:33:12;;;;;;;13.83;8.70;;;;;;;12.98;30.80;100395.00;5073807;28;20178;-71
2021/04/28 09:35:37;;;;;;;16.80;8.73;;;;;;;13.17;31.46;100405.34;5075535;28;20213;-72
2021/04/28 09:38:03;;;;;;;13.43;8.17;;;;;;;13.32;30.10;100396.22;5058044;28;20175;-74
2021/04/28 09:40:46;;;;;;;15.30;8.73;;;;;;;13.15;29.69;100386.66;5074581;28;20291;-73
2021/04/28 09:43:12;;;;;;;14.13;8.63;;;;;;;13.23;31.48;100377.25;5075651;28;20186;-74
2021/04/28 09:45:44;;;;;;;11.57;8.37;;;;;;;12.95;31.41;100383.66;5095528;22;20241;-75
2021/04/28 09:48:11;;;;;;;16.10;9.53;;;;;;;12.92;31.33;100387.41;5076133;28;20173;-76
2021/04/28 09:50:37;;;;;;;17.10;9.20;;;;;;;12.63;31.70;100378.69;5058132;28;20190;-75
2021/04/28 09:53:02;;;;;;;15.87;9.17;;;;;;;13.00;31.42;100384.19;5075802;28;20209;-76
2021/04/28 09:55:28;;;;;;;19.27;8.37;;;;;;;13.13;31.66;100374.34;5075574;28;20190;-76
2021/04/28 09:57:54;;;;;;;17.97;8.87;;;;;;;13.26;31.06;100371.66;5075798;28;20210;-76
2021/04/28 10:00:24;;;;;;;18.60;8.67;;;;;;;13.57;30.54;100355.09;5074508;28;20244;-75
2021/04/28 10:02:55;;;;;;;16.87;8.83;;;;;;;13.87;30.92;100362.72;5062019;28;20197;-76
2021/04/28 10:05:25;;;;;;;15.20;8.03;;;;;;;14.30;31.45;100343.41;5074349;28;20278;-76
2021/04/28 10:07:52;;;;;;;18.20;8.60;;;;;;;14.52;29.15;100358.78;5074265;28;20175;-76
2021/04/28 10:10:19;;;;;;;13.50;7.70;;;;;;;14.32;29.12;100363.78;5074563;28;20534;-76
2021/04/28 10:12:44;;;;;;;14.23;8.27;;;;;;;14.38;30.02;100335.63;5057535;28;20225;-76
2021/04/28 10:15:10;;;;;;;12.67;7.90;;;;;;;14.47;28.74;100342.13;5074255;28;20650;-76
2021/04/28 10:17:36;;;;;;;12.83;7.13;;;;;;;14.40;29.19;100345.25;5074655;28;20643;-75
2021/04/28 10:20:03;;;;;;;9.60;6.53;;;;;;;14.45;27.46;100336.88;5074065;28;20194;-76
2021/04/28 10:22:29;;;;;;;16.63;7.37;;;;;;;14.81;27.01;100343.91;5074556;28;20189;-75
2021/04/28 10:24:55;;;;;;;11.73;7.37;;;;;;;14.87;27.33;100343.47;5074138;28;20195;-76
2021/04/28 10:27:20;;;;;;;11.70;7.50;;;;;;;15.11;28.27;100345.19;5074167;28;20198;-76
2021/04/28 10:29:47;;;;;;;9.43;6.07;;;;;;;14.71;27.18;100340.25;5076027;28;20182;-75
2021/04/28 10:32:15;;;;;;;11.93;6.60;;;;;;;14.96;27.13;100342.75;5075174;28;20520;-75
2021/04/28 10:34:52;;;;;;;14.63;8.13;;;;;;;14.96;27.59;100340.06;5074506;28;20195;-76
2021/04/28 10:37:23;;;;;;;14.60;7.17;;;;;;;15.29;27.08;100304.25;5075617;28;20174;-76
2021/04/28 10:39:49;;;;;;;15.43;6.97;;;;;;;15.52;26.33;100328.41;5073534;28;20206;-76
2021/04/28 10:42:36;;;;;;;12.30;7.07;;;;;;;15.54;26.23;100323.75;5057237;28;20205;-76
2021/04/28 10:45:22;;;;;;;12.30;7.20;;;;;;;15.83;26.40;100316.88;5074625;28;20713;-76
2021/04/28 10:47:52;;;;;;;13.13;8.03;;;;;;;16.22;26.36;100317.22;5074332;28;20166;-75
2021/04/28 10:50:42;;;;;;;12.07;7.20;;;;;;;15.80;26.54;100317.13;5072976;28;20179;-75
2021/04/28 10:53:26;;;;;;;12.07;6.93;;;;;;;15.88;25.68;100314.66;5073356;28;20179;-75
2021/04/28 10:56:06;;;;;;;15.57;7.17;;;;;;;15.61;25.96;100323.19;5074303;28;20187;-75
2021/04/28 10:58:32;;;;;;;11.90;7.17;;;;;;;16.70;25.74;100325.66;5072873;28;20193;-75
2021/04/28 11:00:58;;;;;;;12.60;7.13;;;;;;;19.04;22.68;100322.22;5073844;28;20206;-76
2021/04/28 11:03:30;;;;;;;12.97;7.10;;;;;;;19.93;21.68;100318.94;5073083;28;20528;-75
2021/04/28 11:05:59;;;;;;;13.00;7.90;;;;;;;18.54;22.00;100315.34;5073429;28;20202;-75
2021/04/28 11:08:30;;;;;;;9.77;6.40;;;;;;;16.72;23.13;100309.34;5073641;28;20197;-74
2021/04/28 11:10:56;;;;;;;12.27;6.47;;;;;;;19.64;21.18;100319.97;5072951;28;20184;-75
2021/04/28 11:13:23;;;;;;;13.10;7.60;;;;;;;20.10;21.06;100299.16;5073107;28;20181;-76
2021/04/28 11:15:53;;;;;;;13.00;7.67;;;;;;;19.56;20.75;100311.75;5072994;28;20193;-76
2021/04/28 11:18:28;;;;;;;13.13;7.57;;;;;;;20.71;20.72;100311.00;5072690;28;20202;-75
2021/04/28 11:21:12;;;;;;;14.47;7.50;;;;;;;21.48;19.59;100305.50;5074517;28;20205;-75
2021/04/28 11:23:56;;;;;;;9.77;7.67;;;;;;;21.82;19.52;100315.47;5074900;28;20198;-75